Time;durP1;ratioP1;P1;durP2;ratioP2;P2;SDS_P1;SDS_P2;PMS_P1;PMS_P2;Temp;Humidity;BMP_temperature;BMP_pressure;BME280_temperature;BME280_humidity;BME280_pressure;Samples;Min_cycle;Max_cycle;Signal;HPM_P1;HPM_P2
2023/04/05 00:00:55;;;;;;;;;;;2.50;1.00;;;;;;5027626;28;19925;-62
2023/04/05 00:03:21;;;;;;;;;;;2.50;1.00;;;;;;5032806;28;19924;-62
2023/04/05 00:05:48;;;;;;;;;;;2.50;1.00;;;;;;5029178;28;19921;-62
2023/04/05 00:08:22;;;;;;;;;;;2.50;12.80;;;;;;5032703;28;19921;-63
2023/04/05 00:10:49;;;;;;;;;;;2.50;32.20;;;;;;5026836;28;19928;-63
2023/04/05 00:13:15;;;;;;;;;;;2.40;39.30;;;;;;5032883;28;19925;-62
2023/04/05 00:15:42;;;;;;;;;;;2.40;25.90;;;;;;5028332;28;20330;-63
2023/04/05 00:18:20;;;;;;;;;;;2.40;15.60;;;;;;5028938;28;19932;-62
2023/04/05 00:20:47;;;;;;;;;;;2.40;9.30;;;;;;5027040;28;19921;-62
2023/04/05 00:23:13;;;;;;;;;;;2.40;5.80;;;;;;5033011;28;20346;-63
2023/04/05 00:25:40;;;;;;;;;;;2.30;12.30;;;;;;5028830;28;19928;-62
2023/04/05 00:28:06;;;;;;;;;;;2.30;20.30;;;;;;5028855;28;19960;-62
2023/04/05 00:30:33;;;;;;;;;;;2.30;28.00;;;;;;5028053;28;19921;-62
2023/04/05 00:32:59;;;;;;;;;;;2.30;39.80;;;;;;5032955;28;19925;-62
2023/04/05 00:35:28;;;;;;;;;;;2.30;49.10;;;;;;5029293;28;19932;-62
2023/04/05 00:37:55;;;;;;;;;;;2.30;73.20;;;;;;5028888;28;19952;-63
2023/04/05 00:40:21;;;;;;;;;;;2.20;99.90;;;;;;5029134;28;19921;-62
2023/04/05 00:42:48;;;;;;;;;;;2.20;99.90;;;;;;5032994;28;19921;-63
2023/04/05 00:45:15;;;;;;;10.37;6.00;;;2.20;99.90;;;;;;5027638;28;20223;-63
2023/04/05 00:47:42;;;;;;;10.77;6.70;;;2.10;99.90;;;;;;5032794;28;20521;-62
2023/04/05 00:50:11;;;;;;;9.07;6.57;;;2.10;99.90;;;;;;5029106;28;20492;-62
2023/04/05 00:52:40;;;;;;;10.43;6.37;;;2.10;99.90;;;;;;5033536;28;20461;-63
2023/04/05 00:55:08;;;;;;;14.53;6.27;;;2.10;99.90;;;;;;5027926;28;20481;-62
2023/04/05 00:57:38;;;;;;;11.97;6.83;;;2.10;99.90;;;;;;5032430;28;20469;-63
2023/04/05 01:00:08;;;;;;;9.83;6.17;;;2.10;99.90;;;;;;5026761;28;20462;-62
2023/04/05 01:02:39;;;;;;;9.50;6.70;;;2.00;99.90;;;;;;5035558;28;20459;-63
2023/04/05 01:05:14;;;;;;;9.30;6.60;;;2.00;99.90;;;;;;5028175;28;20468;-64
2023/04/05 01:07:46;;;;;;;11.00;6.27;;;2.00;99.90;;;;;;5036871;28;20888;-62
2023/04/05 01:10:16;;;;;;;9.63;6.40;;;1.90;99.90;;;;;;5022785;28;20496;-62
2023/04/05 01:12:44;;;;;;;12.83;7.10;;;1.90;99.90;;;;;;5030998;28;20462;-62
2023/04/05 01:15:11;;;;;;;10.40;5.90;;;1.90;99.90;;;;;;5024880;28;20460;-61
2023/04/05 01:17:38;;;;;;;10.30;6.73;;;1.90;99.90;;;;;;5031330;28;20484;-62
2023/04/05 01:20:09;;;;;;;10.63;6.53;;;1.80;99.90;;;;;;5028123;28;20455;-63
2023/04/05 01:23:05;;;;;;;12.77;7.17;;;1.80;99.90;;;;;;5031586;28;20451;-62
2023/04/05 01:25:42;;;;;;;;;;;1.70;99.90;;;;;;5031035;28;20718;-62
2023/04/05 01:28:29;;;;;;;13.82;8.73;;;1.60;99.90;;;;;;5030175;28;20483;-62
2023/04/05 01:31:06;;;;;;;11.30;6.70;;;1.70;99.90;;;;;;5025012;28;20217;-62
2023/04/05 01:33:40;;;;;;;9.67;6.83;;;1.70;1.00;;;;;;5031777;28;20457;-62
2023/04/05 01:36:16;;;;;;;9.37;6.87;;;1.80;1.00;;;;;;5030182;28;20477;-62
2023/04/05 01:38:46;;;;;;;12.67;6.77;;;1.70;1.00;;;;;;5028665;28;20814;-62
2023/04/05 01:41:12;;;;;;;11.23;7.17;;;1.60;1.00;;;;;;5030500;28;20517;-62
2023/04/05 01:43:39;;;;;;;9.77;6.40;;;1.60;1.00;;;;;;5031355;28;20835;-62
2023/04/05 01:46:07;;;;;;;10.87;6.60;;;1.60;1.00;;;;;;5026676;28;20483;-63
2023/04/05 01:48:34;;;;;;;9.60;6.63;;;1.60;1.00;;;;;;5027677;28;20461;-62
2023/04/05 01:51:01;;;;;;;11.50;6.63;;;1.50;1.00;;;;;;5030454;28;20563;-62
2023/04/05 01:53:27;;;;;;;11.43;7.53;;;1.50;21.60;;;;;;5031159;28;20459;-63
2023/04/05 01:55:54;;;;;;;16.30;7.57;;;1.40;99.90;;;;;;5025972;28;20488;-62
2023/04/05 01:58:21;;;;;;;10.63;7.07;;;1.40;99.90;;;;;;5027807;28;20457;-62
2023/04/05 02:00:48;;;;;;;12.53;7.57;;;1.40;99.90;;;;;;5026928;28;20522;-62
2023/04/05 02:03:16;;;;;;;13.60;7.90;;;1.40;99.90;;;;;;5031353;28;20849;-62
2023/04/05 02:05:44;;;;;;;12.00;7.80;;;1.30;1.00;;;;;;5046252;28;21207;-62
2023/04/05 02:08:12;;;;;;;15.13;8.70;;;1.30;1.00;;;;;;5051087;28;20461;-62
2023/04/05 02:10:39;;;;;;;12.13;7.47;;;1.30;1.00;;;;;;5050129;28;20566;-62
2023/04/05 02:13:06;;;;;;;15.03;8.30;;;1.30;98.00;;;;;;5054756;28;20897;-62
2023/04/05 02:15:32;;;;;;;14.10;7.87;;;1.30;99.90;;;;;;5050018;28;20447;-62
2023/04/05 02:18:00;;;;;;;14.90;8.60;;;1.30;99.90;;;;;;5054409;28;20974;-62
2023/04/05 02:20:29;;;;;;;13.80;8.10;;;1.20;99.90;;;;;;5050741;28;20459;-62
2023/04/05 02:22:57;;;;;;;14.07;7.63;;;1.20;99.90;;;;;;5054207;28;20965;-62
2023/04/05 02:25:24;;;;;;;15.97;8.40;;;1.20;1.00;;;;;;5048516;28;20460;-63
2023/04/05 02:27:51;;;;;;;14.00;7.37;;;1.20;1.00;;;;;;5050239;28;20509;-62
2023/04/05 02:30:18;;;;;;;13.90;8.60;;;1.20;99.90;;;;;;5050556;28;20481;-62
2023/04/05 02:32:45;;;;;;;14.17;8.37;;;1.00;1.00;;;;;;5054574;28;20460;-63
2023/04/05 02:35:12;;;;;;;15.77;8.27;;;0.90;99.90;;;;;;5050775;28;20966;-62
2023/04/05 02:37:41;;;;;;;14.57;8.50;;;0.80;40.70;;;;;;5054184;28;20855;-63
2023/04/05 02:40:14;;;;;;;13.57;8.40;;;0.80;1.00;;;;;;5051270;28;20474;-63
2023/04/05 02:42:41;;;;;;;15.00;8.63;;;0.80;99.90;;;;;;5054229;28;20448;-63
2023/04/05 02:45:08;;;;;;;17.03;8.20;;;0.80;41.70;;;;;;5049851;28;20453;-62
2023/04/05 02:47:35;;;;;;;16.90;9.10;;;0.80;1.00;;;;;;5054072;28;20471;-62
2023/04/05 02:50:01;;;;;;;15.67;8.30;;;0.80;1.00;;;;;;5051584;28;20884;-62
2023/04/05 02:52:28;;;;;;;19.67;7.57;;;0.70;1.00;;;;;;5048459;28;20464;-62
2023/04/05 02:54:56;;;;;;;14.93;8.03;;;0.70;99.90;;;;;;5051569;28;21008;-63
2023/04/05 02:57:23;;;;;;;14.20;7.67;;;0.60;1.00;;;;;;5053702;28;20476;-63
2023/04/05 02:59:50;;;;;;;13.70;7.53;;;0.60;99.90;;;;;;5049320;28;20452;-62
2023/04/05 03:02:17;;;;;;;14.20;8.37;;;0.70;99.90;;;;;;5053804;28;20867;-62
2023/04/05 03:04:44;;;;;;;13.63;7.53;;;0.60;99.90;;;;;;5051765;28;20456;-63
2023/04/05 03:07:13;;;;;;;12.17;7.30;;;0.60;1.00;;;;;;5053506;28;20511;-63
2023/04/05 03:09:40;;;;;;;12.07;8.30;;;0.60;1.00;;;;;;5051607;28;20587;-62
2023/04/05 03:12:08;;;;;;;17.87;8.40;;;0.60;1.00;;;;;;5052937;28;20453;-62
2023/04/05 03:14:35;;;;;;;15.10;7.83;;;0.60;1.00;;;;;;5051523;28;20448;-62
2023/04/05 03:17:02;;;;;;;14.67;7.53;;;0.60;1.00;;;;;;5053063;28;20471;-62
2023/04/05 03:19:28;;;;;;;15.57;8.03;;;0.60;1.00;;;;;;5051825;28;20446;-62
2023/04/05 03:21:56;;;;;;;12.37;7.77;;;0.50;1.00;;;;;;5053620;28;20452;-62
2023/04/05 03:24:23;;;;;;;12.53;7.90;;;0.50;1.00;;;;;;5049091;28;20457;-62
2023/04/05 03:26:50;;;;;;;14.40;7.70;;;0.50;1.00;;;;;;5052758;28;20475;-62
2023/04/05 03:29:18;;;;;;;17.03;7.97;;;0.50;1.00;;;;;;5050081;28;20479;-63
2023/04/05 03:31:45;;;;;;;14.23;7.43;;;0.50;1.00;;;;;;5052050;28;20459;-62
2023/04/05 03:34:12;;;;;;;14.73;7.13;;;0.50;1.00;;;;;;5051624;28;20457;-63
2023/04/05 03:36:41;;;;;;;12.73;7.87;;;0.40;1.00;;;;;;5053092;28;20499;-62
2023/04/05 03:39:09;;;;;;;14.77;7.97;;;0.40;1.00;;;;;;5046882;28;20448;-62
2023/04/05 03:41:35;;;;;;;12.47;8.17;;;0.40;1.00;;;;;;5051048;28;20483;-62
2023/04/05 03:44:02;;;;;;;11.50;7.87;;;0.40;1.00;;;;;;5051573;28;20458;-62
2023/04/05 03:46:31;;;;;;;14.10;7.77;;;0.30;1.00;;;;;;5052071;28;20479;-61
2023/04/05 03:48:58;;;;;;;15.63;8.77;;;0.30;1.00;;;;;;5052548;28;20460;-62
2023/04/05 03:51:26;;;;;;;20.03;9.53;;;0.40;1.00;;;;;;5049374;28;20495;-63
2023/04/05 03:53:52;;;;;;;15.50;9.10;;;0.30;1.00;;;;;;5052549;28;20452;-62
2023/04/05 03:56:19;;;;;;;12.60;8.63;;;0.30;1.00;;;;;;5048264;28;20476;-62
2023/04/05 03:58:46;;;;;;;16.67;9.57;;;0.30;1.00;;;;;;5052687;28;20448;-62
2023/04/05 04:01:13;;;;;;;17.33;9.03;;;0.30;1.00;;;;;;5048338;28;20463;-62
2023/04/05 04:03:41;;;;;;;19.73;9.73;;;0.20;1.00;;;;;;5052798;28;20459;-62
2023/04/05 04:06:08;;;;;;;16.33;9.77;;;0.20;1.00;;;;;;5051454;28;20827;-62
2023/04/05 04:08:35;;;;;;;16.77;8.90;;;0.20;1.00;;;;;;5053697;28;20463;-62
2023/04/05 04:11:02;;;;;;;16.77;9.60;;;0.20;1.00;;;;;;5044607;28;20489;-61
2023/04/05 04:13:28;;;;;;;22.03;11.00;;;0.20;1.00;;;;;;5044243;28;20448;-62
2023/04/05 04:15:55;;;;;;;23.63;11.83;;;0.10;1.00;;;;;;5045944;28;20490;-62
2023/04/05 04:18:22;;;;;;;19.47;11.70;;;0.10;1.00;;;;;;5051020;28;20452;-62
2023/04/05 04:20:51;;;;;;;16.67;10.17;;;0.10;1.00;;;;;;5053154;28;20812;-62
2023/04/05 04:23:18;;;;;;;18.10;9.80;;;0.10;1.00;;;;;;5054435;28;20487;-62
2023/04/05 04:25:45;;;;;;;16.93;9.80;;;0.00;1.00;;;;;;5050041;28;20488;-62
2023/04/05 04:28:12;;;;;;;14.23;8.97;;;0.10;1.00;;;;;;5049641;28;20451;-63
2023/04/05 04:30:42;;;;;;;16.13;9.00;;;0.00;1.00;;;;;;5041343;28;20485;-64
2023/04/05 04:33:08;;;;;;;17.97;9.13;;;0.00;1.00;;;;;;5049586;28;20499;-63
2023/04/05 04:35:37;;;;;;;15.83;9.47;;;0.00;1.00;;;;;;5050862;28;20453;-63
2023/04/05 04:38:06;;;;;;;14.37;8.73;;;0.00;1.00;;;;;;5047794;28;20463;-63
2023/04/05 04:40:37;;;;;;;19.03;10.13;;;0.10;1.00;;;;;;5048319;28;20448;-63
2023/04/05 04:43:04;;;;;;;19.03;10.70;;;0.00;1.00;;;;;;5048793;28;20502;-63
2023/04/05 04:45:33;;;;;;;17.17;10.63;;;-0.10;1.00;;;;;;5047498;28;20475;-63
2023/04/05 04:48:02;;;;;;;19.63;10.40;;;-0.10;1.00;;;;;;5051655;28;20472;-63
2023/04/05 04:50:28;;;;;;;17.07;10.43;;;-0.10;1.00;;;;;;5047095;28;20507;-66
2023/04/05 04:52:55;;;;;;;17.40;10.00;;;-0.10;1.00;;;;;;5050021;28;20444;-65
2023/04/05 04:55:25;;;;;;;18.97;9.97;;;-0.10;1.00;;;;;;5045013;28;20977;-64
2023/04/05 04:57:52;;;;;;;20.67;11.07;;;-0.10;1.00;;;;;;5051160;28;20472;-64
2023/04/05 05:00:20;;;;;;;25.20;12.83;;;-0.10;1.00;;;;;;5049647;28;20456;-65
2023/04/05 05:02:47;;;;;;;23.80;11.83;;;-0.10;1.00;;;;;;5051398;28;20467;-65
2023/04/05 05:05:14;;;;;;;25.40;13.37;;;-0.10;1.00;;;;;;5048370;28;20448;-65
2023/04/05 05:07:41;;;;;;;27.10;13.93;;;-0.10;1.00;;;;;;5051175;28;20473;-65
2023/04/05 05:10:09;;;;;;;29.00;13.17;;;-0.10;1.00;;;;;;5046632;28;21001;-64
2023/04/05 05:12:38;;;;;;;24.70;13.07;;;-0.10;1.00;;;;;;5048629;28;20535;-65
2023/04/05 05:15:05;;;;;;;27.27;13.93;;;-0.10;1.00;;;;;;5042016;28;20460;-64
2023/04/05 05:17:33;;;;;;;31.47;13.60;;;-0.10;1.00;;;;;;5046013;28;20476;-65
2023/04/05 05:20:00;;;;;;;24.03;12.37;;;-0.10;1.00;;;;;;5049836;28;20444;-65
2023/04/05 05:22:27;;;;;;;26.50;12.53;;;-0.10;1.00;;;;;;5049013;28;21003;-64
2023/04/05 05:24:54;;;;;;;20.43;12.00;;;-0.10;1.00;;;;;;5047922;28;20458;-63
2023/04/05 05:27:21;;;;;;;26.50;12.67;;;-0.10;1.00;;;;;;5048373;28;20469;-62
2023/04/05 05:29:49;;;;;;;23.67;12.37;;;-0.10;1.00;;;;;;5045074;28;20483;-63
2023/04/05 05:32:16;;;;;;;31.47;13.30;;;0.00;1.00;;;;;;5048601;28;20455;-62
2023/04/05 05:34:43;;;;;;;27.63;13.57;;;0.00;1.00;;;;;;5050930;28;20460;-63
2023/04/05 05:37:10;;;;;;;29.90;14.50;;;0.10;1.00;;;;;;5049216;28;20475;-62
2023/04/05 05:39:37;;;;;;;39.07;15.80;;;0.10;1.00;;;;;;5049087;28;20448;-64
2023/04/05 05:42:04;;;;;;;29.93;14.57;;;0.10;1.00;;;;;;5048114;28;20456;-62
2023/04/05 05:44:31;;;;;;;30.53;14.30;;;0.20;1.00;;;;;;5037733;28;20453;-62
2023/04/05 05:46:59;;;;;;;37.43;15.27;;;0.20;1.00;;;;;;5052947;28;20472;-62
2023/04/05 05:49:25;;;;;;;32.10;13.43;;;0.30;1.00;;;;;;5052791;28;20464;-65
2023/04/05 05:51:52;;;;;;;25.07;11.97;;;0.30;1.00;;;;;;5054749;28;20483;-64
2023/04/05 05:54:19;;;;;;;20.03;10.90;;;0.40;1.00;;;;;;5051269;28;20460;-64
2023/04/05 05:56:46;;;;;;;20.47;8.57;;;0.50;1.00;;;;;;5051920;28;20993;-69
2023/04/05 05:59:12;;;;;;;26.27;10.60;;;0.80;1.00;;;;;;5050094;28;20456;-68
2023/04/05 06:01:41;;;;;;;19.47;10.47;;;1.50;78.70;;;;;;5046712;28;20465;-68
2023/04/05 06:04:09;;;;;;;21.47;10.87;;;2.10;99.90;;;;;;5054373;28;20461;-61
2023/04/05 06:06:36;;;;;;;15.73;8.40;;;2.70;84.20;;;;;;5048424;28;20483;-65
2023/04/05 06:09:03;;;;;;;17.70;8.20;;;3.00;13.20;;;;;;5046620;28;20469;-65
2023/04/05 06:11:30;;;;;;;13.20;7.47;;;3.00;1.00;;;;;;5047206;28;20486;-66
2023/04/05 06:13:56;;;;;;;15.80;8.13;;;2.90;1.00;;;;;;5052462;28;20455;-64
2023/04/05 06:16:23;;;;;;;11.17;7.27;;;2.80;99.90;;;;;;5051453;28;20468;-66
2023/04/05 06:18:50;;;;;;;11.93;7.20;;;2.70;97.30;;;;;;5053811;28;20462;-66
2023/04/05 06:21:18;;;;;;;14.70;6.13;;;2.50;1.00;;;;;;5046663;28;20791;-65
2023/04/05 06:23:45;;;;;;;14.63;7.43;;;2.40;99.90;;;;;;5053584;28;20451;-64
2023/04/05 06:26:17;;;;;;;10.13;6.93;;;2.30;1.00;;;;;;5046397;28;20474;-65
2023/04/05 06:28:46;;;;;;;12.30;6.70;;;2.30;99.90;;;;;;5051158;28;20446;-64
2023/04/05 06:31:14;;;;;;;13.10;6.17;;;2.30;99.90;;;;;;5047362;28;20548;-66
2023/04/05 06:33:41;;;;;;;7.50;5.00;;;2.50;99.90;;;;;;5051221;28;20458;-66
2023/04/05 06:36:08;;;;;;;11.33;5.90;;;2.50;99.90;;;;;;5050392;28;21024;-65
2023/04/05 06:38:36;;;;;;;9.90;6.13;;;2.70;1.00;;;;;;5051819;28;20460;-65
2023/04/05 06:41:03;;;;;;;11.00;6.00;;;2.80;99.90;;;;;;5048965;28;20517;-66
2023/04/05 06:43:30;;;;;;;9.03;5.90;;;2.90;99.90;;;;;;5049261;28;20452;-65
2023/04/05 06:45:57;;;;;;;9.13;5.83;;;2.90;99.90;;;;;;5048437;28;21001;-64
2023/04/05 06:48:24;;;;;;;9.97;5.77;;;3.00;99.90;;;;;;5053039;28;20456;-62
2023/04/05 06:50:57;;;;;;;10.67;5.83;;;3.20;84.60;;;;;;5047817;28;20490;-65
2023/04/05 06:53:26;;;;;;;8.10;5.93;;;3.30;99.90;;;;;;5053600;28;20487;-65
2023/04/05 06:55:54;;;;;;;9.20;5.33;;;3.40;1.00;;;;;;5049365;28;20452;-66
2023/04/05 06:58:21;;;;;;;9.63;5.80;;;3.60;99.90;;;;;;5050387;28;20946;-63
2023/04/05 07:00:48;;;;;;;8.77;5.40;;;3.70;99.90;;;;;;5048334;28;20520;-66
2023/04/05 07:03:15;;;;;;;8.43;6.17;;;3.80;99.90;;;;;;5047551;28;20469;-65
2023/04/05 07:05:49;;;;;;;9.17;6.43;;;3.90;99.90;;;;;;5064451;28;20453;-64
2023/04/05 07:08:16;;;;;;;8.57;5.60;;;4.00;31.70;;;;;;5054540;28;20818;-62
2023/04/05 07:10:42;;;;;;;6.17;5.00;;;4.10;34.10;;;;;;5052689;28;20491;-63
2023/04/05 07:13:10;;;;;;;11.20;5.40;;;4.30;1.00;;;;;;5053034;28;20452;-63
2023/04/05 07:15:37;;;;;;;10.97;5.40;;;4.60;1.00;;;;;;5053141;28;20449;-63
2023/04/05 07:18:04;;;;;;;7.63;4.97;;;4.60;1.00;;;;;;5052301;28;21156;-62
2023/04/05 07:20:31;;;;;;;8.50;5.40;;;4.70;99.90;;;;;;5055246;28;20467;-64
2023/04/05 07:22:58;;;;;;;7.97;5.37;;;4.70;99.90;;;;;;5050619;28;20455;-63
2023/04/05 07:25:24;;;;;;;9.23;5.97;;;4.80;99.90;;;;;;5052901;28;20942;-65
2023/04/05 07:27:51;;;;;;;8.00;5.63;;;4.90;99.90;;;;;;5052261;28;20541;-63
2023/04/05 07:30:20;;;;;;;8.10;5.30;;;5.00;99.90;;;;;;5052673;28;20471;-63
2023/04/05 07:32:46;;;;;;;8.10;5.20;;;5.10;99.90;;;;;;5052627;28;20222;-64
2023/04/05 07:35:14;;;;;;;7.57;5.50;;;5.10;99.90;;;;;;5052317;28;20472;-64
2023/04/05 07:37:40;;;;;;;6.53;4.90;;;5.20;99.90;;;;;;5051939;28;20993;-63
2023/04/05 07:40:09;;;;;;;7.17;5.00;;;5.30;99.90;;;;;;5052340;28;20463;-64
2023/04/05 07:42:36;;;;;;;9.83;5.23;;;5.30;99.90;;;;;;5052784;28;20261;-65
2023/04/05 07:45:03;;;;;;;8.23;4.70;;;5.40;99.90;;;;;;5052616;28;20215;-64
2023/04/05 07:47:33;;;;;;;6.70;4.40;;;5.40;99.90;;;;;;5043517;28;21017;-64
2023/04/05 07:50:00;;;;;;;7.90;4.77;;;5.60;99.90;;;;;;5047195;28;20198;-64
2023/04/05 07:52:27;;;;;;;9.43;4.73;;;5.70;99.90;;;;;;5047738;28;20230;-64
2023/04/05 07:54:54;;;;;;;7.93;4.93;;;5.90;99.90;;;;;;5052279;28;20217;-65
2023/04/05 07:57:20;;;;;;;6.53;4.87;;;6.00;99.90;;;;;;5051497;28;20229;-66
2023/04/05 07:59:49;;;;;;;8.23;5.00;;;6.00;99.90;;;;;;5056440;28;20215;-63
2023/04/05 08:02:16;;;;;;;7.67;5.00;;;6.20;99.90;;;;;;5051071;28;20697;-65
2023/04/05 08:04:44;;;;;;;10.90;7.27;;;6.40;99.90;;;;;;5049608;28;20250;-64
2023/04/05 08:07:11;;;;;;;14.50;7.00;;;6.40;99.90;;;;;;5054182;28;20244;-65
2023/04/05 08:09:37;;;;;;;6.13;4.70;;;6.50;99.90;;;;;;5054581;28;20215;-64
2023/04/05 08:12:05;;;;;;;6.90;4.67;;;6.60;99.90;;;;;;5052252;28;20231;-65
2023/04/05 08:14:32;;;;;;;11.50;5.20;;;6.60;99.90;;;;;;5053684;28;20207;-64
2023/04/05 08:16:58;;;;;;;7.87;4.70;;;6.60;99.90;;;;;;5051352;28;20229;-66
2023/04/05 08:19:25;;;;;;;7.10;4.67;;;6.60;99.90;;;;;;5051437;28;20216;-67
2023/04/05 08:21:54;;;;;;;6.90;4.80;;;6.70;99.90;;;;;;5051818;28;20215;-64
2023/04/05 08:24:20;;;;;;;5.00;4.47;;;6.90;99.90;;;;;;5051085;28;20216;-64
2023/04/05 08:26:47;;;;;;;7.97;4.40;;;7.00;99.90;;;;;;5049405;28;20233;-63
2023/04/05 08:29:14;;;;;;;7.97;4.50;;;7.20;99.90;;;;;;5053096;28;20213;-66
2023/04/05 08:31:41;;;;;;;7.37;4.30;;;7.10;99.90;;;;;;5053839;28;20603;-66
2023/04/05 08:34:08;;;;;;;6.37;4.87;;;7.20;99.90;;;;;;5051582;28;20335;-66
2023/04/05 08:36:34;;;;;;;8.50;5.17;;;7.30;99.90;;;;;;5051401;28;20294;-65
2023/04/05 08:39:02;;;;;;;6.30;4.67;;;7.40;99.90;;;;;;5049950;28;20205;-65
2023/04/05 08:41:36;;;;;;;9.83;4.73;;;7.30;99.90;;;;;;5052160;28;20201;-64
2023/04/05 08:44:04;;;;;;;7.73;4.90;;;7.20;99.90;;;;;;5050994;28;20694;-68
2023/04/05 08:46:32;;;;;;;10.03;5.10;;;7.20;99.90;;;;;;5050713;28;20374;-68
2023/04/05 08:49:00;;;;;;;7.37;4.80;;;7.20;99.90;;;;;;5049897;28;20579;-69
2023/04/05 08:51:28;;;;;;;7.13;4.50;;;7.50;99.90;;;;;;5051024;28;20696;-67
2023/04/05 08:53:55;;;;;;;5.00;3.43;;;7.70;99.90;;;;;;5051598;28;20202;-64
2023/04/05 08:56:27;;;;;;;8.88;5.57;;;7.60;99.90;;;;;;5047188;28;20508;-65
2023/04/05 08:59:01;;;;;;;8.65;5.18;;;7.20;99.90;;;;;;5053472;28;20421;-69
2023/04/05 09:01:30;;;;;;;13.57;5.47;;;7.30;99.90;;;;;;5048694;28;20213;-64
2023/04/05 09:04:00;;;;;;;12.27;5.40;;;7.30;99.90;;;;;;5050930;28;20259;-64
2023/04/05 09:06:27;;;;;;;7.50;5.63;;;7.20;99.90;;;;;;5049341;28;20980;-63
2023/04/05 09:08:56;;;;;;;8.60;5.70;;;7.30;99.90;;;;;;5049530;28;20413;-64
2023/04/05 09:11:24;;;;;;;;;;;7.40;99.90;;;;;;5051180;28;20506;-63
2023/04/05 09:13:51;;;;;;;;;;;7.30;99.90;;;;;;5051914;28;19928;-63
2023/04/05 09:16:17;;;;;;;;;;;7.30;99.90;;;;;;5047801;28;19927;-66
2023/04/05 09:18:44;;;;;;;;;;;7.10;99.90;;;;;;5051236;28;19931;-65
2023/04/05 09:21:10;;;;;;;;;;;7.20;99.90;;;;;;5053824;28;19928;-64
2023/04/05 09:23:37;;;;;;;;;;;7.40;99.90;;;;;;5055140;28;19922;-65
2023/04/05 09:26:17;;;;;;;;;;;7.70;99.90;;;;;;5052460;28;19920;-64
2023/04/05 09:28:45;;;;;;;;;;;7.90;99.90;;;;;;5053987;28;20294;-63
2023/04/05 09:31:28;;;;;;;;;;;8.10;99.90;;;;;;5056743;28;19920;-64
2023/04/05 09:33:57;;;;;;;;;;;8.30;99.90;;;;;;5055405;28;19944;-64
2023/04/05 09:36:23;;;;;;;;;;;8.40;99.90;;;;;;5055560;28;19921;-65
2023/04/05 09:38:50;;;;;;;;;;;8.60;99.90;;;;;;5050926;28;19928;-66
2023/04/05 09:41:16;;;;;;;;;;;8.70;99.90;;;;;;5055935;28;19928;-65
2023/04/05 09:43:44;;;;;;;;;;;8.80;99.90;;;;;;5055532;28;20368;-66
2023/04/05 09:46:28;;;;;;;;;;;8.80;99.90;;;;;;5050726;28;19924;-66
2023/04/05 09:48:55;;;;;;;;;;;8.90;99.90;;;;;;5054615;28;19925;-66
2023/04/05 09:51:22;;;;;;;;;;;8.80;99.90;;;;;;5054744;28;20314;-69
2023/04/05 09:53:59;;;;;;;;;;;8.90;99.90;;;;;;5054861;28;19970;-68
2023/04/05 09:56:26;;;;;;;;;;;8.70;99.90;;;;;;5054142;28;19995;-67
2023/04/05 09:58:58;;;;;;;;;;;8.70;99.90;;;;;;5053182;28;19928;-69
2023/04/05 10:01:26;;;;;;;;;;;8.40;99.90;;;;;;5054711;28;19921;-69
2023/04/05 10:03:52;;;;;;;;;;;8.30;99.90;;;;;;5051082;28;19920;-69
2023/04/05 10:06:19;;;;;;;;;;;8.40;99.90;;;;;;5054818;28;19927;-69
2023/04/05 10:08:46;;;;;;;;;;;8.10;99.90;;;;;;5053992;28;19925;-68
2023/04/05 10:11:13;;;;;;;;;;;8.10;99.90;;;;;;5054564;28;19928;-62
2023/04/05 10:13:40;;;;;;;;;;;8.00;99.90;;;;;;5054311;28;19924;-63
2023/04/05 10:16:11;;;;;;;;;;;7.90;99.90;;;;;;5043064;28;19966;-63
2023/04/05 10:18:40;;;;;;;;;;;8.10;99.90;;;;;;5054141;28;19925;-64
2023/04/05 10:21:11;;;;;;;;;;;8.40;99.90;;;;;;5051126;28;20259;-65
2023/04/05 10:23:39;;;;;;;;;;;8.50;99.90;;;;;;5054508;28;19921;-68
2023/04/05 10:26:10;;;;;;;;;;;8.60;99.90;;;;;;5053807;28;19920;-67
2023/04/05 10:28:37;;;;;;;;;;;8.60;99.90;;;;;;5054153;28;19928;-68
2023/04/05 10:31:10;;;;;;;;;;;8.80;99.90;;;;;;5050273;28;20393;-68
2023/04/05 10:33:43;;;;;;;;;;;9.00;99.90;;;;;;5053881;28;19920;-68
2023/04/05 10:36:14;;;;;;;;;;;9.10;99.90;;;;;;5053382;28;19927;-68
2023/04/05 10:38:45;;;;;;;;;;;9.40;99.90;;;;;;5053620;28;20074;-66
2023/04/05 10:41:13;;;;;;;;;;;9.50;99.90;;;;;;5054096;28;19932;-68
2023/04/05 10:43:40;;;;;;;;;;;9.90;99.90;;;;;;5049773;28;19975;-66
2023/04/05 10:46:07;;;;;;;;;;;9.90;99.90;;;;;;5053325;28;19925;-66
2023/04/05 10:48:40;;;;;;;;;;;9.70;99.90;;;;;;5054278;28;20000;-68
2023/04/05 10:51:09;;;;;;;;;;;9.90;99.90;;;;;;5051534;28;19927;-70
2023/04/05 10:53:36;;;;;;;;;;;9.80;99.90;;;;;;5050429;28;19928;-70
2023/04/05 10:56:03;;;;;;;;;;;9.70;99.90;;;;;;5050250;28;20287;-72
2023/04/05 10:58:30;;;;;;;;;;;9.80;99.90;;;;;;5056400;28;19924;-69
2023/04/05 11:00:57;;;;;;;;;;;10.00;99.90;;;;;;5053031;28;20280;-70
2023/04/05 11:03:38;;;;;;;;;;;10.20;99.90;;;;;;5053442;28;19921;-70
2023/04/05 11:06:19;;;;;;;;;;;10.40;99.90;;;;;;5050101;28;19921;-70
2023/04/05 11:08:46;;;;;;;;;;;10.40;99.90;;;;;;5050229;28;20015;-70
2023/04/05 11:11:15;;;;;;;;;;;10.50;99.90;;;;;;5053081;28;19955;-71
2023/04/05 11:13:49;;;;;;;;;;;10.50;99.90;;;;;;5050045;28;20343;-70
2023/04/05 11:16:15;;;;;;;;;;;10.40;99.90;;;;;;5051165;28;19927;-72
2023/04/05 11:18:44;;;;;;;;;;;10.30;99.90;;;;;;5052340;28;19935;-66
2023/04/05 11:21:11;;;;;;;;;;;10.30;99.90;;;;;;5053983;28;20019;-69
2023/04/05 11:23:53;;;;;;;;;;;10.00;99.90;;;;;;5049804;28;19928;-67
2023/04/05 11:26:21;;;;;;;;;;;9.90;99.90;;;;;;5054652;28;19920;-69
2023/04/05 11:28:48;;;;;;;;;;;9.90;99.90;;;;;;5050260;28;20306;-67
2023/04/05 11:31:16;;;;;;;;;;;10.20;99.90;;;;;;5055346;28;19925;-65
2023/04/05 11:33:58;;;;;;;;;;;10.40;99.90;;;;;;5059098;28;19920;-64
2023/04/05 11:36:32;;;;;;;;;;;10.50;99.90;;;;;;5058280;28;19920;-64
2023/04/05 11:39:13;;;;;;;;;;;10.40;99.90;;;;;;5055920;28;19920;-64
2023/04/05 11:41:41;;;;;;;;;;;10.20;99.90;;;;;;5039693;28;19921;-65
2023/04/05 11:44:13;;;;;;;;;;;10.30;99.90;;;;;;5056926;28;19932;-64
2023/04/05 11:46:41;;;;;;;;;;;10.20;99.90;;;;;;5053374;28;19928;-64
2023/04/05 11:49:07;;;;;;;;;;;10.00;99.90;;;;;;5053317;28;20272;-63
2023/04/05 11:51:34;;;;;;;;;;;10.10;99.90;;;;;;5050791;28;19944;-63
2023/04/05 11:54:00;;;;;;;;;;;9.80;99.90;;;;;;5053466;28;19920;-62
2023/04/05 11:56:27;;;;;;;;;;;9.60;99.90;;;;;;5053016;28;19977;-63
2023/04/05 11:58:59;;;;;;;;;;;9.40;99.90;;;;;;5055118;28;19921;-65
2023/04/05 12:01:25;;;;;;;;;;;9.50;99.90;;;;;;5047614;28;19928;-65
2023/04/05 12:03:53;;;;;;;;;;;9.50;99.90;;;;;;5046000;28;19931;-66
2023/04/05 12:06:21;;;;;;;;;;;9.60;99.90;;;;;;5052625;28;19927;-66
2023/04/05 12:08:49;;;;;;;;;;;9.50;99.90;;;;;;5051770;28;19925;-65
2023/04/05 12:11:16;;;;;;;;;;;9.80;99.90;;;;;;5052747;28;19970;-66
2023/04/05 12:13:45;;;;;;;;;;;10.00;99.90;;;;;;5051953;28;19924;-66
2023/04/05 12:16:13;;;;;;;;;;;10.20;99.90;;;;;;5049807;28;19921;-67
2023/04/05 12:18:39;;;;;;;;;;;10.40;99.90;;;;;;5052364;28;19921;-67
2023/04/05 12:21:07;;;;;;;;;;;10.40;99.90;;;;;;5051857;28;19964;-67
2023/04/05 12:23:34;;;;;;;;;;;10.50;99.90;;;;;;5052075;28;19921;-67
2023/04/05 12:26:01;;;;;;;;;;;10.60;99.90;;;;;;5051346;28;19936;-67
2023/04/05 12:28:42;;;;;;;;;;;10.70;99.90;;;;;;5051376;28;20383;-65
2023/04/05 12:31:10;;;;;;;;;;;10.70;99.90;;;;;;5047423;28;19925;-66
2023/04/05 12:33:40;;;;;;;;;;;10.70;99.90;;;;;;5051619;28;19928;-63
2023/04/05 12:36:07;;;;;;;;;;;10.80;99.90;;;;;;5048139;28;20371;-63
2023/04/05 12:38:36;;;;;;;;;;;10.80;99.90;;;;;;5051157;28;19975;-65
2023/04/05 12:41:03;;;;;;;;;;;10.80;99.90;;;;;;5051984;28;19928;-63
2023/04/05 12:43:38;;;;;;;;;;;10.70;99.90;;;;;;5049526;28;20422;-63
2023/04/05 12:46:06;;;;;;;;;;;10.90;99.90;;;;;;5051273;28;19920;-63
2023/04/05 12:48:32;;;;;;;;;;;10.80;99.90;;;;;;5050683;28;20411;-64
2023/04/05 12:51:03;;;;;;;;;;;10.90;99.90;;;;;;5051200;28;19929;-64
2023/04/05 12:53:30;;;;;;;;;;;11.00;99.90;;;;;;5052123;28;19920;-63
2023/04/05 12:55:57;;;;;;;;;;;11.10;99.90;;;;;;5051350;28;19936;-65
2023/04/05 12:58:32;;;;;;;;;;;11.10;99.90;;;;;;5052022;28;19927;-63
2023/04/05 13:00:59;;;;;;;;;;;11.10;99.90;;;;;;5053162;28;19928;-62
2023/04/05 13:03:26;;;;;;;;;;;10.80;99.90;;;;;;5052272;28;19968;-67
2023/04/05 13:05:53;;;;;;;;;;;10.60;99.90;;;;;;5052005;28;19931;-63
2023/04/05 13:08:20;;;;;;;;;;;10.50;99.90;;;;;;5052077;28;19971;-63
2023/04/05 13:10:48;;;;;;;;;;;10.60;99.90;;;;;;5052085;28;19924;-64
2023/04/05 13:13:15;;;;;;;;;;;10.70;99.90;;;;;;5051678;28;19928;-63
2023/04/05 13:15:41;;;;;;;;;;;10.40;99.90;;;;;;5052038;28;19921;-65
2023/04/05 13:18:08;;;;;;;;;;;10.60;99.90;;;;;;5051606;28;19968;-63
2023/04/05 13:20:35;;;;;;;;;;;10.80;99.90;;;;;;5052444;28;19927;-64
2023/04/05 13:23:01;;;;;;;;;;;11.00;99.90;;;;;;5050735;28;20014;-65
2023/04/05 13:25:29;;;;;;;;;;;11.00;99.90;;;;;;5045255;28;19933;-65
2023/04/05 13:27:56;;;;;;;;;;;11.10;99.90;;;;;;5050338;28;19931;-64
2023/04/05 13:30:22;;;;;;;;;;;11.30;99.90;;;;;;5047679;28;19921;-67